sensor_id;sensor_type;location;lat;lon;timestamp;temperature;humidity
11423;DHT22;5768;51.476;7.210;2024-01-30T00:03:23;10.60;1.40
11423;DHT22;5768;51.476;7.210;2024-01-30T00:08:25;10.50;1.40
11423;DHT22;5768;51.476;7.210;2024-01-30T00:13:27;10.50;1.40
11423;DHT22;5768;51.476;7.210;2024-01-30T00:18:31;10.40;1.40
11423;DHT22;5768;51.476;7.210;2024-01-30T00:23:33;10.40;1.40
11423;DHT22;5768;51.476;7.210;2024-01-30T00:28:35;10.50;1.40
11423;DHT22;5768;51.476;7.210;2024-01-30T00:33:39;10.50;1.40
11423;DHT22;5768;51.476;7.210;2024-01-30T00:38:41;10.50;1.40
11423;DHT22;5768;51.476;7.210;2024-01-30T00:43:43;10.50;1.40
11423;DHT22;5768;51.476;7.210;2024-01-30T00:48:47;10.50;1.40
11423;DHT22;5768;51.476;7.210;2024-01-30T00:53:49;10.60;1.40
11423;DHT22;5768;51.476;7.210;2024-01-30T00:58:51;10.60;1.40
11423;DHT22;5768;51.476;7.210;2024-01-30T01:03:54;10.50;1.40
11423;DHT22;5768;51.476;7.210;2024-01-30T01:08:56;10.60;1.40
11423;DHT22;5768;51.476;7.210;2024-01-30T01:13:59;10.50;1.40
11423;DHT22;5768;51.476;7.210;2024-01-30T01:19:02;10.50;1.40
11423;DHT22;5768;51.476;7.210;2024-01-30T01:24:05;10.50;1.40
11423;DHT22;5768;51.476;7.210;2024-01-30T01:29:07;10.50;1.40
11423;DHT22;5768;51.476;7.210;2024-01-30T01:34:14;10.40;1.40
11423;DHT22;5768;51.476;7.210;2024-01-30T01:39:16;10.20;1.40
11423;DHT22;5768;51.476;7.210;2024-01-30T01:44:19;10.40;1.40
11423;DHT22;5768;51.476;7.210;2024-01-30T01:49:23;10.40;1.40
11423;DHT22;5768;51.476;7.210;2024-01-30T01:54:27;10.40;1.40
11423;DHT22;5768;51.476;7.210;2024-01-30T01:59:31;10.30;1.40
11423;DHT22;5768;51.476;7.210;2024-01-30T02:04:35;10.30;1.40
11423;DHT22;5768;51.476;7.210;2024-01-30T02:09:37;10.30;1.40
11423;DHT22;5768;51.476;7.210;2024-01-30T02:14:44;10.30;1.40
11423;DHT22;5768;51.476;7.210;2024-01-30T02:19:48;10.30;1.40
11423;DHT22;5768;51.476;7.210;2024-01-30T02:24:52;10.30;1.40
11423;DHT22;5768;51.476;7.210;2024-01-30T02:29:54;10.30;1.40
11423;DHT22;5768;51.476;7.210;2024-01-30T02:34:56;10.30;1.40
11423;DHT22;5768;51.476;7.210;2024-01-30T02:39:59;10.20;1.40
11423;DHT22;5768;51.476;7.210;2024-01-30T02:45:02;10.30;1.40
11423;DHT22;5768;51.476;7.210;2024-01-30T02:50:05;10.20;1.40
11423;DHT22;5768;51.476;7.210;2024-01-30T02:55:09;10.20;1.40
11423;DHT22;5768;51.476;7.210;2024-01-30T03:00:12;10.20;1.40
11423;DHT22;5768;51.476;7.210;2024-01-30T03:05:15;10.20;1.40
11423;DHT22;5768;51.476;7.210;2024-01-30T03:10:19;10.20;1.40
11423;DHT22;5768;51.476;7.210;2024-01-30T03:15:21;10.20;1.40
11423;DHT22;5768;51.476;7.210;2024-01-30T03:20:23;10.20;1.40
11423;DHT22;5768;51.476;7.210;2024-01-30T03:25:27;10.20;1.40
11423;DHT22;5768;51.476;7.210;2024-01-30T03:30:29;10.20;1.40
11423;DHT22;5768;51.476;7.210;2024-01-30T03:35:31;10.20;1.40
11423;DHT22;5768;51.476;7.210;2024-01-30T03:40:35;10.30;1.40
11423;DHT22;5768;51.476;7.210;2024-01-30T03:45:37;10.30;1.40
11423;DHT22;5768;51.476;7.210;2024-01-30T03:50:39;10.20;1.40
11423;DHT22;5768;51.476;7.210;2024-01-30T03:55:43;10.30;1.40
11423;DHT22;5768;51.476;7.210;2024-01-30T04:00:45;10.30;1.40
11423;DHT22;5768;51.476;7.210;2024-01-30T04:05:47;10.30;1.40
11423;DHT22;5768;51.476;7.210;2024-01-30T04:10:50;10.40;1.40
11423;DHT22;5768;51.476;7.210;2024-01-30T04:15:53;10.30;1.40
11423;DHT22;5768;51.476;7.210;2024-01-30T04:20:56;10.30;1.40
11423;DHT22;5768;51.476;7.210;2024-01-30T04:25:59;10.30;1.40
11423;DHT22;5768;51.476;7.210;2024-01-30T04:31:01;10.30;1.40
11423;DHT22;5768;51.476;7.210;2024-01-30T04:36:04;10.20;1.40
11423;DHT22;5768;51.476;7.210;2024-01-30T04:41:11;10.20;1.40
11423;DHT22;5768;51.476;7.210;2024-01-30T04:46:13;10.20;1.40
11423;DHT22;5768;51.476;7.210;2024-01-30T04:51:15;10.30;1.40
11423;DHT22;5768;51.476;7.210;2024-01-30T04:56:19;10.30;1.40
11423;DHT22;5768;51.476;7.210;2024-01-30T05:01:21;10.30;1.40
11423;DHT22;5768;51.476;7.210;2024-01-30T05:06:26;10.30;1.40
11423;DHT22;5768;51.476;7.210;2024-01-30T05:11:30;10.30;1.40
11423;DHT22;5768;51.476;7.210;2024-01-30T05:16:32;10.40;1.40
11423;DHT22;5768;51.476;7.210;2024-01-30T05:21:34;10.40;1.40
11423;DHT22;5768;51.476;7.210;2024-01-30T05:26:38;10.40;1.40
11423;DHT22;5768;51.476;7.210;2024-01-30T05:31:40;10.40;1.40
11423;DHT22;5768;51.476;7.210;2024-01-30T05:36:42;10.40;1.40
11423;DHT22;5768;51.476;7.210;2024-01-30T05:41:46;10.30;1.40
11423;DHT22;5768;51.476;7.210;2024-01-30T05:46:48;10.30;1.40
11423;DHT22;5768;51.476;7.210;2024-01-30T05:51:50;10.30;1.40
11423;DHT22;5768;51.476;7.210;2024-01-30T05:56:54;10.50;1.40
11423;DHT22;5768;51.476;7.210;2024-01-30T06:01:56;10.30;1.40
11423;DHT22;5768;51.476;7.210;2024-01-30T06:06:58;10.30;1.40
11423;DHT22;5768;51.476;7.210;2024-01-30T06:12:04;10.30;1.40
11423;DHT22;5768;51.476;7.210;2024-01-30T06:17:07;10.40;1.40
11423;DHT22;5768;51.476;7.210;2024-01-30T06:22:09;10.40;1.40
11423;DHT22;5768;51.476;7.210;2024-01-30T06:27:13;10.50;1.40
11423;DHT22;5768;51.476;7.210;2024-01-30T06:32:15;10.50;1.40
11423;DHT22;5768;51.476;7.210;2024-01-30T06:37:18;10.50;1.40
11423;DHT22;5768;51.476;7.210;2024-01-30T06:42:21;10.50;1.40
11423;DHT22;5768;51.476;7.210;2024-01-30T06:47:23;10.60;1.40
11423;DHT22;5768;51.476;7.210;2024-01-30T06:52:25;10.70;1.40
11423;DHT22;5768;51.476;7.210;2024-01-30T06:57:29;10.70;1.40
11423;DHT22;5768;51.476;7.210;2024-01-30T07:02:31;10.80;1.40
11423;DHT22;5768;51.476;7.210;2024-01-30T07:07:33;10.80;1.40
11423;DHT22;5768;51.476;7.210;2024-01-30T07:12:37;10.90;1.40
11423;DHT22;5768;51.476;7.210;2024-01-30T07:17:39;10.90;1.40
11423;DHT22;5768;51.476;7.210;2024-01-30T07:22:41;10.90;1.40
11423;DHT22;5768;51.476;7.210;2024-01-30T07:27:45;11.00;1.40
11423;DHT22;5768;51.476;7.210;2024-01-30T07:32:47;11.00;1.40
11423;DHT22;5768;51.476;7.210;2024-01-30T07:37:49;11.10;1.40
11423;DHT22;5768;51.476;7.210;2024-01-30T07:42:53;11.10;1.40
11423;DHT22;5768;51.476;7.210;2024-01-30T07:47:56;11.20;1.40
11423;DHT22;5768;51.476;7.210;2024-01-30T07:53:00;11.30;1.40
11423;DHT22;5768;51.476;7.210;2024-01-30T07:58:04;11.40;1.40
11423;DHT22;5768;51.476;7.210;2024-01-30T08:03:06;11.40;1.40
11423;DHT22;5768;51.476;7.210;2024-01-30T08:08:08;11.40;1.40
11423;DHT22;5768;51.476;7.210;2024-01-30T08:13:12;11.60;1.40
11423;DHT22;5768;51.476;7.210;2024-01-30T08:18:14;11.70;1.40
11423;DHT22;5768;51.476;7.210;2024-01-30T08:23:16;11.80;1.40
11423;DHT22;5768;51.476;7.210;2024-01-30T08:28:20;12.00;1.40
11423;DHT22;5768;51.476;7.210;2024-01-30T08:33:22;12.10;1.40
11423;DHT22;5768;51.476;7.210;2024-01-30T08:38:25;12.10;1.40
11423;DHT22;5768;51.476;7.210;2024-01-30T08:43:28;12.20;1.40
11423;DHT22;5768;51.476;7.210;2024-01-30T08:48:31;12.20;1.40
11423;DHT22;5768;51.476;7.210;2024-01-30T08:53:33;12.30;1.40
11423;DHT22;5768;51.476;7.210;2024-01-30T08:58:37;12.40;1.40
11423;DHT22;5768;51.476;7.210;2024-01-30T09:03:39;12.40;1.40
11423;DHT22;5768;51.476;7.210;2024-01-30T09:08:44;12.50;1.40
11423;DHT22;5768;51.476;7.210;2024-01-30T09:13:47;12.50;1.40
11423;DHT22;5768;51.476;7.210;2024-01-30T09:18:49;12.70;1.40
11423;DHT22;5768;51.476;7.210;2024-01-30T09:23:54;12.80;1.40
11423;DHT22;5768;51.476;7.210;2024-01-30T09:29:04;12.70;1.40
11423;DHT22;5768;51.476;7.210;2024-01-30T09:34:06;12.70;1.40
11423;DHT22;5768;51.476;7.210;2024-01-30T09:39:08;12.70;1.40
11423;DHT22;5768;51.476;7.210;2024-01-30T09:44:13;12.80;1.40
11423;DHT22;5768;51.476;7.210;2024-01-30T09:49:18;12.90;1.40
11423;DHT22;5768;51.476;7.210;2024-01-30T09:54:22;13.10;1.40
11423;DHT22;5768;51.476;7.210;2024-01-30T09:59:26;13.20;1.40
11423;DHT22;5768;51.476;7.210;2024-01-30T10:04:28;13.30;1.40
11423;DHT22;5768;51.476;7.210;2024-01-30T10:09:32;13.10;1.40
11423;DHT22;5768;51.476;7.210;2024-01-30T10:14:39;13.20;1.40
11423;DHT22;5768;51.476;7.210;2024-01-30T10:19:42;13.30;1.40
11423;DHT22;5768;51.476;7.210;2024-01-30T10:24:44;13.30;1.40
11423;DHT22;5768;51.476;7.210;2024-01-30T10:29:50;13.40;1.40
11423;DHT22;5768;51.476;7.210;2024-01-30T10:34:53;13.50;1.40
11423;DHT22;5768;51.476;7.210;2024-01-30T10:39:56;13.80;1.40
11423;DHT22;5768;51.476;7.210;2024-01-30T10:45:08;13.80;1.40
11423;DHT22;5768;51.476;7.210;2024-01-30T10:50:13;14.10;1.40
11423;DHT22;5768;51.476;7.210;2024-01-30T10:55:16;14.50;1.40
11423;DHT22;5768;51.476;7.210;2024-01-30T11:00:21;14.60;1.40
11423;DHT22;5768;51.476;7.210;2024-01-30T11:05:25;14.50;1.40
11423;DHT22;5768;51.476;7.210;2024-01-30T11:10:28;14.40;1.40
11423;DHT22;5768;51.476;7.210;2024-01-30T11:15:33;14.40;1.40
11423;DHT22;5768;51.476;7.210;2024-01-30T11:20:46;14.60;1.40
11423;DHT22;5768;51.476;7.210;2024-01-30T11:25:52;14.40;1.40
11423;DHT22;5768;51.476;7.210;2024-01-30T11:31:04;14.70;1.40
11423;DHT22;5768;51.476;7.210;2024-01-30T11:36:08;14.20;1.40
11423;DHT22;5768;51.476;7.210;2024-01-30T11:41:12;14.20;1.40
11423;DHT22;5768;51.476;7.210;2024-01-30T11:46:18;14.00;1.40
11423;DHT22;5768;51.476;7.210;2024-01-30T11:51:20;13.80;1.40
11423;DHT22;5768;51.476;7.210;2024-01-30T11:56:24;13.90;1.40
11423;DHT22;5768;51.476;7.210;2024-01-30T12:01:29;13.80;1.40
11423;DHT22;5768;51.476;7.210;2024-01-30T12:06:32;13.90;1.40
11423;DHT22;5768;51.476;7.210;2024-01-30T12:11:43;13.80;1.40
11423;DHT22;5768;51.476;7.210;2024-01-30T12:16:49;13.50;1.40
11423;DHT22;5768;51.476;7.210;2024-01-30T12:21:55;13.50;1.40
11423;DHT22;5768;51.476;7.210;2024-01-30T12:26:59;13.30;1.40
11423;DHT22;5768;51.476;7.210;2024-01-30T12:32:04;13.40;1.40
11423;DHT22;5768;51.476;7.210;2024-01-30T12:37:06;13.40;1.40
11423;DHT22;5768;51.476;7.210;2024-01-30T12:42:09;13.40;1.40
11423;DHT22;5768;51.476;7.210;2024-01-30T12:47:13;13.50;1.40
11423;DHT22;5768;51.476;7.210;2024-01-30T12:52:17;13.30;1.40
11423;DHT22;5768;51.476;7.210;2024-01-30T12:57:19;13.30;1.40
11423;DHT22;5768;51.476;7.210;2024-01-30T13:02:23;13.30;1.40
11423;DHT22;5768;51.476;7.210;2024-01-30T13:07:25;13.40;1.40
11423;DHT22;5768;51.476;7.210;2024-01-30T13:12:28;13.20;1.40
11423;DHT22;5768;51.476;7.210;2024-01-30T13:17:31;13.20;1.40
11423;DHT22;5768;51.476;7.210;2024-01-30T13:22:34;13.30;1.40
11423;DHT22;5768;51.476;7.210;2024-01-30T13:27:38;13.40;1.40
11423;DHT22;5768;51.476;7.210;2024-01-30T13:32:41;13.30;1.40
11423;DHT22;5768;51.476;7.210;2024-01-30T13:37:44;13.20;1.40
11423;DHT22;5768;51.476;7.210;2024-01-30T13:42:48;13.10;1.40
11423;DHT22;5768;51.476;7.210;2024-01-30T13:47:52;13.30;1.40
11423;DHT22;5768;51.476;7.210;2024-01-30T13:52:54;13.20;1.40
11423;DHT22;5768;51.476;7.210;2024-01-30T13:57:56;13.10;99.90
11423;DHT22;5768;51.476;7.210;2024-01-30T14:03:00;13.00;99.90
11423;DHT22;5768;51.476;7.210;2024-01-30T14:08:04;12.80;99.90
11423;DHT22;5768;51.476;7.210;2024-01-30T14:13:08;13.00;99.90
11423;DHT22;5768;51.476;7.210;2024-01-30T14:18:11;12.90;99.90
11423;DHT22;5768;51.476;7.210;2024-01-30T14:23:14;12.90;99.90
11423;DHT22;5768;51.476;7.210;2024-01-30T14:28:16;13.00;99.90
11423;DHT22;5768;51.476;7.210;2024-01-30T14:33:20;13.10;99.90
11423;DHT22;5768;51.476;7.210;2024-01-30T14:38:22;13.30;99.90
11423;DHT22;5768;51.476;7.210;2024-01-30T14:43:25;13.50;99.90
11423;DHT22;5768;51.476;7.210;2024-01-30T14:48:29;13.10;99.90
11423;DHT22;5768;51.476;7.210;2024-01-30T14:53:31;12.90;99.90
11423;DHT22;5768;51.476;7.210;2024-01-30T14:58:33;12.90;99.90
11423;DHT22;5768;51.476;7.210;2024-01-30T15:03:37;12.80;99.90
11423;DHT22;5768;51.476;7.210;2024-01-30T15:08:40;12.70;99.90
11423;DHT22;5768;51.476;7.210;2024-01-30T15:13:42;12.50;99.90
11423;DHT22;5768;51.476;7.210;2024-01-30T15:18:46;12.60;99.90
11423;DHT22;5768;51.476;7.210;2024-01-30T15:23:48;12.60;99.90
11423;DHT22;5768;51.476;7.210;2024-01-30T15:28:51;12.60;99.90
11423;DHT22;5768;51.476;7.210;2024-01-30T15:33:54;12.60;99.90
11423;DHT22;5768;51.476;7.210;2024-01-30T15:38:58;12.50;99.90
11423;DHT22;5768;51.476;7.210;2024-01-30T15:44:00;12.30;99.90
11423;DHT22;5768;51.476;7.210;2024-01-30T15:49:04;12.40;99.90
11423;DHT22;5768;51.476;7.210;2024-01-30T15:54:08;12.20;1.40
11423;DHT22;5768;51.476;7.210;2024-01-30T15:59:10;12.00;1.40
11423;DHT22;5768;51.476;7.210;2024-01-30T16:04:14;12.00;1.40
11423;DHT22;5768;51.476;7.210;2024-01-30T16:09:16;11.90;1.40
11423;DHT22;5768;51.476;7.210;2024-01-30T16:14:18;12.00;1.40
11423;DHT22;5768;51.476;7.210;2024-01-30T16:19:22;11.80;1.40
11423;DHT22;5768;51.476;7.210;2024-01-30T16:24:24;11.90;1.40
11423;DHT22;5768;51.476;7.210;2024-01-30T16:29:26;11.60;1.40
11423;DHT22;5768;51.476;7.210;2024-01-30T16:34:30;11.60;1.40
11423;DHT22;5768;51.476;7.210;2024-01-30T16:39:32;11.50;1.40
11423;DHT22;5768;51.476;7.210;2024-01-30T16:44:34;11.50;1.40
11423;DHT22;5768;51.476;7.210;2024-01-30T16:49:38;11.40;1.40
11423;DHT22;5768;51.476;7.210;2024-01-30T16:54:40;11.40;1.40
11423;DHT22;5768;51.476;7.210;2024-01-30T16:59:42;11.40;1.40
11423;DHT22;5768;51.476;7.210;2024-01-30T17:04:46;11.30;1.40
11423;DHT22;5768;51.476;7.210;2024-01-30T17:09:49;11.20;1.40
11423;DHT22;5768;51.476;7.210;2024-01-30T17:14:51;11.20;1.40
11423;DHT22;5768;51.476;7.210;2024-01-30T17:19:55;11.10;1.40
11423;DHT22;5768;51.476;7.210;2024-01-30T17:24:58;11.10;1.40
11423;DHT22;5768;51.476;7.210;2024-01-30T17:30:00;11.00;1.40
11423;DHT22;5768;51.476;7.210;2024-01-30T17:35:04;11.00;1.40
11423;DHT22;5768;51.476;7.210;2024-01-30T17:40:07;11.10;1.40
11423;DHT22;5768;51.476;7.210;2024-01-30T17:45:10;10.90;1.40
11423;DHT22;5768;51.476;7.210;2024-01-30T17:50:14;10.90;1.40
11423;DHT22;5768;51.476;7.210;2024-01-30T17:55:17;11.00;1.40
11423;DHT22;5768;51.476;7.210;2024-01-30T18:00:19;11.00;1.40
11423;DHT22;5768;51.476;7.210;2024-01-30T18:05:23;10.70;1.40
11423;DHT22;5768;51.476;7.210;2024-01-30T18:10:26;10.50;1.40
11423;DHT22;5768;51.476;7.210;2024-01-30T18:15:31;10.70;1.40
11423;DHT22;5768;51.476;7.210;2024-01-30T18:20:35;10.10;1.40
11423;DHT22;5768;51.476;7.210;2024-01-30T18:25:37;9.90;1.40
11423;DHT22;5768;51.476;7.210;2024-01-30T18:30:39;9.90;1.40
11423;DHT22;5768;51.476;7.210;2024-01-30T18:35:43;10.10;1.40
11423;DHT22;5768;51.476;7.210;2024-01-30T18:40:45;10.00;1.40
11423;DHT22;5768;51.476;7.210;2024-01-30T18:45:51;10.10;1.40
11423;DHT22;5768;51.476;7.210;2024-01-30T18:50:56;10.00;1.40
11423;DHT22;5768;51.476;7.210;2024-01-30T18:56:00;10.10;1.40
11423;DHT22;5768;51.476;7.210;2024-01-30T19:01:03;10.30;1.40
11423;DHT22;5768;51.476;7.210;2024-01-30T19:06:07;10.10;1.40
11423;DHT22;5768;51.476;7.210;2024-01-30T19:11:17;10.00;1.40
11423;DHT22;5768;51.476;7.210;2024-01-30T19:16:19;10.00;1.40
11423;DHT22;5768;51.476;7.210;2024-01-30T19:21:23;10.30;1.40
11423;DHT22;5768;51.476;7.210;2024-01-30T19:26:25;10.00;1.40
11423;DHT22;5768;51.476;7.210;2024-01-30T19:31:28;9.90;1.40
11423;DHT22;5768;51.476;7.210;2024-01-30T19:36:31;9.90;1.40
11423;DHT22;5768;51.476;7.210;2024-01-30T19:41:33;10.00;1.40
11423;DHT22;5768;51.476;7.210;2024-01-30T19:46:36;9.90;1.40
11423;DHT22;5768;51.476;7.210;2024-01-30T19:51:40;9.80;1.40
11423;DHT22;5768;51.476;7.210;2024-01-30T19:56:42;9.80;1.40
11423;DHT22;5768;51.476;7.210;2024-01-30T20:01:44;9.70;1.40
11423;DHT22;5768;51.476;7.210;2024-01-30T20:06:48;9.70;1.40
11423;DHT22;5768;51.476;7.210;2024-01-30T20:11:50;9.60;1.40
11423;DHT22;5768;51.476;7.210;2024-01-30T20:16:52;9.60;1.40
11423;DHT22;5768;51.476;7.210;2024-01-30T20:21:56;9.40;1.40
11423;DHT22;5768;51.476;7.210;2024-01-30T20:27:00;9.40;99.90
11423;DHT22;5768;51.476;7.210;2024-01-30T20:32:03;9.50;99.90
11423;DHT22;5768;51.476;7.210;2024-01-30T20:37:07;9.40;99.90
11423;DHT22;5768;51.476;7.210;2024-01-30T20:42:10;9.30;99.90
11423;DHT22;5768;51.476;7.210;2024-01-30T20:47:12;9.40;99.90
11423;DHT22;5768;51.476;7.210;2024-01-30T20:52:16;9.30;99.90
11423;DHT22;5768;51.476;7.210;2024-01-30T20:57:18;9.20;99.90
11423;DHT22;5768;51.476;7.210;2024-01-30T21:02:20;9.40;99.90
11423;DHT22;5768;51.476;7.210;2024-01-30T21:07:24;9.50;99.90
11423;DHT22;5768;51.476;7.210;2024-01-30T21:12:26;9.20;99.90
11423;DHT22;5768;51.476;7.210;2024-01-30T21:17:29;9.10;99.90
11423;DHT22;5768;51.476;7.210;2024-01-30T21:22:33;9.10;99.90
11423;DHT22;5768;51.476;7.210;2024-01-30T21:27:35;9.10;99.90
11423;DHT22;5768;51.476;7.210;2024-01-30T21:32:39;8.90;99.90
11423;DHT22;5768;51.476;7.210;2024-01-30T21:37:43;8.90;99.90
11423;DHT22;5768;51.476;7.210;2024-01-30T21:42:45;8.90;99.90
11423;DHT22;5768;51.476;7.210;2024-01-30T21:47:51;9.20;99.90
11423;DHT22;5768;51.476;7.210;2024-01-30T21:52:55;9.00;99.90
11423;DHT22;5768;51.476;7.210;2024-01-30T21:57:57;9.10;99.90
11423;DHT22;5768;51.476;7.210;2024-01-30T22:03:00;9.10;99.90
11423;DHT22;5768;51.476;7.210;2024-01-30T22:08:04;8.90;99.90
11423;DHT22;5768;51.476;7.210;2024-01-30T22:13:07;9.00;99.90
11423;DHT22;5768;51.476;7.210;2024-01-30T22:18:10;9.10;99.90
11423;DHT22;5768;51.476;7.210;2024-01-30T22:23:14;9.00;99.90
11423;DHT22;5768;51.476;7.210;2024-01-30T22:28:16;9.10;99.90
11423;DHT22;5768;51.476;7.210;2024-01-30T22:33:18;9.00;99.90
11423;DHT22;5768;51.476;7.210;2024-01-30T22:38:25;9.10;99.90
11423;DHT22;5768;51.476;7.210;2024-01-30T22:43:28;8.90;99.90
11423;DHT22;5768;51.476;7.210;2024-01-30T22:48:33;8.90;99.90
11423;DHT22;5768;51.476;7.210;2024-01-30T22:53:36;8.80;99.90
11423;DHT22;5768;51.476;7.210;2024-01-30T22:58:38;9.10;99.90
11423;DHT22;5768;51.476;7.210;2024-01-30T23:03:41;9.10;99.90
11423;DHT22;5768;51.476;7.210;2024-01-30T23:08:44;9.00;99.90
11423;DHT22;5768;51.476;7.210;2024-01-30T23:13:47;9.10;99.90
11423;DHT22;5768;51.476;7.210;2024-01-30T23:18:49;8.80;99.90
11423;DHT22;5768;51.476;7.210;2024-01-30T23:23:52;8.80;99.90
11423;DHT22;5768;51.476;7.210;2024-01-30T23:28:55;8.50;99.90
11423;DHT22;5768;51.476;7.210;2024-01-30T23:33:59;8.10;99.90
11423;DHT22;5768;51.476;7.210;2024-01-30T23:39:03;7.90;99.90
11423;DHT22;5768;51.476;7.210;2024-01-30T23:44:06;8.10;99.90
11423;DHT22;5768;51.476;7.210;2024-01-30T23:49:08;8.00;99.70
11423;DHT22;5768;51.476;7.210;2024-01-30T23:54:13;7.80;98.60
11423;DHT22;5768;51.476;7.210;2024-01-30T23:59:15;7.80;96.20
